Pagina principale
METAR-TAF:

METAR-TAF

Aeroporti :

Aeroporto di Ginevra-Cointrin

Ginevra, Svizzera

latitudine: 46-15N, longitudine: 006-08E, altezza: 420 m

Osservazione

Il bollettino è stato emesso 33 minuti fa, alle 20:20 UTC
Vento 5 kt da nord, variando fra nord-ovest e nord-est
Temperature 18°C
Umidità 45%
Pressione 1023 hPa
Visibilità 10 km o più
nessuna nube inferiore a 1500 m e nessun cumulonembo

METAR: LSGG 222020Z 36005KT 310V050 CAVOK 18/06 Q1023 NOSIG

Ora: 22:53 (20:53 UTC)

Previsione

Il bollettino è stato emesso 28 minuti fa, alle 20:25 UTC
Previsione valida dal 22 alle 21 UTC al 24 alle 03 UTC
Vento 12 kt da nord-est
Visibilità 10 km o più
nessuna nube inferiore a 1500 m e nessun cumulonembo

TAF: LSGG 222025Z 2221/2403 04012KT CAVOK TX23/2315Z TN10/2304Z

Osservazioni e previsioni meteorologiche di più di 4000 aeroporti (messaggi METAR e TAF).

Le stazioni disponibili sono rappresentate dai dischi gialli e rossi sulla carta.

Puntare il mouse per vedere il nome della stazione.

Clicca sopra per visualizzare le osservazioni e previsioni meteorologiche.

Per cambiare la mappa : fare clic sui pulsanti verdi con una croce nera per ingrandire, il pulsante verde con un trattino per diminuire, o sulla freccia verde per le mappe adiacenti.


METAR-TAF: